sensor_id;sensor_type;location;lat;lon;timestamp;temperature;humidity
56103;DHT22;41970;48.774;9.280;2023-03-01T00:00:38;0.10;99.90
56103;DHT22;41970;48.774;9.280;2023-03-01T00:03:04;0.10;99.90
56103;DHT22;41970;48.774;9.280;2023-03-01T00:05:29;0.30;99.90
56103;DHT22;41970;48.774;9.280;2023-03-01T00:07:55;0.20;99.90
56103;DHT22;41970;48.774;9.280;2023-03-01T00:10:21;0.20;99.90
56103;DHT22;41970;48.774;9.280;2023-03-01T00:12:47;0.10;99.90
56103;DHT22;41970;48.774;9.280;2023-03-01T00:15:12;0.10;99.90
56103;DHT22;41970;48.774;9.280;2023-03-01T00:17:38;0.10;99.90
56103;DHT22;41970;48.774;9.280;2023-03-01T00:20:04;0.10;99.90
56103;DHT22;41970;48.774;9.280;2023-03-01T00:22:36;0.20;99.90
56103;DHT22;41970;48.774;9.280;2023-03-01T00:25:02;0.20;99.90
56103;DHT22;41970;48.774;9.280;2023-03-01T00:27:28;0.10;99.90
56103;DHT22;41970;48.774;9.280;2023-03-01T00:29:54;0.10;99.90
56103;DHT22;41970;48.774;9.280;2023-03-01T00:32:20;0.10;99.90
56103;DHT22;41970;48.774;9.280;2023-03-01T00:34:46;0.00;99.90
56103;DHT22;41970;48.774;9.280;2023-03-01T00:37:20;-0.10;99.90
56103;DHT22;41970;48.774;9.280;2023-03-01T00:39:47;0.00;99.90
56103;DHT22;41970;48.774;9.280;2023-03-01T00:42:14;0.20;99.90
56103;DHT22;41970;48.774;9.280;2023-03-01T00:44:39;0.20;99.90
56103;DHT22;41970;48.774;9.280;2023-03-01T00:47:05;0.10;99.90
56103;DHT22;41970;48.774;9.280;2023-03-01T00:49:31;0.00;99.90
56103;DHT22;41970;48.774;9.280;2023-03-01T00:51:57;0.00;99.90
56103;DHT22;41970;48.774;9.280;2023-03-01T00:54:22;0.00;99.90
56103;DHT22;41970;48.774;9.280;2023-03-01T00:56:48;-0.10;99.90
56103;DHT22;41970;48.774;9.280;2023-03-01T00:59:14;-0.20;99.90
56103;DHT22;41970;48.774;9.280;2023-03-01T01:01:40;-0.30;99.90
56103;DHT22;41970;48.774;9.280;2023-03-01T01:04:08;-0.30;99.90
56103;DHT22;41970;48.774;9.280;2023-03-01T01:06:40;-0.30;99.90
56103;DHT22;41970;48.774;9.280;2023-03-01T01:09:14;-0.40;99.90
56103;DHT22;41970;48.774;9.280;2023-03-01T01:11:49;-0.30;99.90
56103;DHT22;41970;48.774;9.280;2023-03-01T01:14:15;-0.30;99.90
56103;DHT22;41970;48.774;9.280;2023-03-01T01:16:41;-0.30;99.90
56103;DHT22;41970;48.774;9.280;2023-03-01T01:19:07;-0.30;99.90
56103;DHT22;41970;48.774;9.280;2023-03-01T01:21:34;-0.30;99.90
56103;DHT22;41970;48.774;9.280;2023-03-01T01:24:00;-0.30;99.90
56103;DHT22;41970;48.774;9.280;2023-03-01T01:26:28;-0.20;99.90
56103;DHT22;41970;48.774;9.280;2023-03-01T01:28:54;-0.10;99.90
56103;DHT22;41970;48.774;9.280;2023-03-01T01:31:21;-0.10;99.90
56103;DHT22;41970;48.774;9.280;2023-03-01T01:33:50;-0.10;99.90
56103;DHT22;41970;48.774;9.280;2023-03-01T01:36:16;-0.10;99.90
56103;DHT22;41970;48.774;9.280;2023-03-01T01:38:42;0.00;99.90
56103;DHT22;41970;48.774;9.280;2023-03-01T01:41:09;0.00;99.90
56103;DHT22;41970;48.774;9.280;2023-03-01T01:43:48;0.10;99.90
56103;DHT22;41970;48.774;9.280;2023-03-01T01:46:41;0.20;99.90
56103;DHT22;41970;48.774;9.280;2023-03-01T01:49:30;0.20;99.90
56103;DHT22;41970;48.774;9.280;2023-03-01T01:54:49;0.30;99.90
56103;DHT22;41970;48.774;9.280;2023-03-01T01:57:19;0.40;99.90
56103;DHT22;41970;48.774;9.280;2023-03-01T01:59:51;0.50;99.90
56103;DHT22;41970;48.774;9.280;2023-03-01T02:02:18;0.50;99.90
56103;DHT22;41970;48.774;9.280;2023-03-01T02:04:44;0.20;99.90
56103;DHT22;41970;48.774;9.280;2023-03-01T02:07:17;0.10;99.90
56103;DHT22;41970;48.774;9.280;2023-03-01T02:09:53;0.10;99.90
56103;DHT22;41970;48.774;9.280;2023-03-01T02:12:21;0.20;99.90
56103;DHT22;41970;48.774;9.280;2023-03-01T02:14:48;0.30;99.90
56103;DHT22;41970;48.774;9.280;2023-03-01T02:17:16;0.40;99.90
56103;DHT22;41970;48.774;9.280;2023-03-01T02:22:27;0.60;99.90
56103;DHT22;41970;48.774;9.280;2023-03-01T02:25:38;0.60;99.90
56103;DHT22;41970;48.774;9.280;2023-03-01T02:30:42;0.80;99.90
56103;DHT22;41970;48.774;9.280;2023-03-01T02:33:28;0.90;99.90
56103;DHT22;41970;48.774;9.280;2023-03-01T02:36:00;1.00;99.90
56103;DHT22;41970;48.774;9.280;2023-03-01T02:38:26;1.10;99.90
56103;DHT22;41970;48.774;9.280;2023-03-01T02:40:54;1.10;99.90
56103;DHT22;41970;48.774;9.280;2023-03-01T02:43:23;1.20;99.90
56103;DHT22;41970;48.774;9.280;2023-03-01T02:45:56;1.10;99.90
56103;DHT22;41970;48.774;9.280;2023-03-01T02:48:22;1.10;99.90
56103;DHT22;41970;48.774;9.280;2023-03-01T02:51:03;1.20;99.90
56103;DHT22;41970;48.774;9.280;2023-03-01T02:53:41;1.20;99.90
56103;DHT22;41970;48.774;9.280;2023-03-01T02:56:08;1.30;99.90
56103;DHT22;41970;48.774;9.280;2023-03-01T02:58:40;1.40;99.90
56103;DHT22;41970;48.774;9.280;2023-03-01T03:01:12;1.50;99.90
56103;DHT22;41970;48.774;9.280;2023-03-01T03:03:40;1.50;99.90
56103;DHT22;41970;48.774;9.280;2023-03-01T03:06:06;1.50;99.90
56103;DHT22;41970;48.774;9.280;2023-03-01T03:08:32;1.40;99.90
56103;DHT22;41970;48.774;9.280;2023-03-01T03:10:58;1.40;99.90
56103;DHT22;41970;48.774;9.280;2023-03-01T03:13:24;1.50;99.90
56103;DHT22;41970;48.774;9.280;2023-03-01T03:15:55;1.40;99.90
56103;DHT22;41970;48.774;9.280;2023-03-01T03:18:21;1.30;99.90
56103;DHT22;41970;48.774;9.280;2023-03-01T03:20:47;1.30;99.90
56103;DHT22;41970;48.774;9.280;2023-03-01T03:23:19;1.30;99.90
56103;DHT22;41970;48.774;9.280;2023-03-01T03:25:50;1.40;99.90
56103;DHT22;41970;48.774;9.280;2023-03-01T03:28:16;1.40;99.90
56103;DHT22;41970;48.774;9.280;2023-03-01T03:30:44;1.40;99.90
56103;DHT22;41970;48.774;9.280;2023-03-01T03:33:11;1.40;99.90
56103;DHT22;41970;48.774;9.280;2023-03-01T03:35:45;1.40;99.90
56103;DHT22;41970;48.774;9.280;2023-03-01T03:38:13;1.40;99.90
56103;DHT22;41970;48.774;9.280;2023-03-01T03:40:55;1.30;99.90
56103;DHT22;41970;48.774;9.280;2023-03-01T03:43:26;1.40;99.90
56103;DHT22;41970;48.774;9.280;2023-03-01T03:45:52;1.40;99.90
56103;DHT22;41970;48.774;9.280;2023-03-01T03:48:19;1.50;99.90
56103;DHT22;41970;48.774;9.280;2023-03-01T03:50:53;1.60;99.90
56103;DHT22;41970;48.774;9.280;2023-03-01T03:53:20;1.60;99.90
56103;DHT22;41970;48.774;9.280;2023-03-01T03:55:46;1.70;99.90
56103;DHT22;41970;48.774;9.280;2023-03-01T03:58:15;1.70;99.90
56103;DHT22;41970;48.774;9.280;2023-03-01T04:00:44;1.70;99.90
56103;DHT22;41970;48.774;9.280;2023-03-01T04:03:11;1.70;99.90
56103;DHT22;41970;48.774;9.280;2023-03-01T04:05:38;1.80;99.90
56103;DHT22;41970;48.774;9.280;2023-03-01T04:08:04;1.80;99.90
56103;DHT22;41970;48.774;9.280;2023-03-01T04:10:39;1.80;99.90
56103;DHT22;41970;48.774;9.280;2023-03-01T04:13:07;1.80;99.90
56103;DHT22;41970;48.774;9.280;2023-03-01T04:15:34;1.70;99.90
56103;DHT22;41970;48.774;9.280;2023-03-01T04:18:00;1.60;99.90
56103;DHT22;41970;48.774;9.280;2023-03-01T04:20:31;1.70;99.90
56103;DHT22;41970;48.774;9.280;2023-03-01T04:23:08;1.80;99.90
56103;DHT22;41970;48.774;9.280;2023-03-01T04:25:55;1.80;99.90
56103;DHT22;41970;48.774;9.280;2023-03-01T04:28:35;1.90;99.90
56103;DHT22;41970;48.774;9.280;2023-03-01T04:31:07;2.00;99.90
56103;DHT22;41970;48.774;9.280;2023-03-01T04:33:47;1.90;99.90
56103;DHT22;41970;48.774;9.280;2023-03-01T04:36:15;1.90;99.90
56103;DHT22;41970;48.774;9.280;2023-03-01T04:38:41;1.80;99.90
56103;DHT22;41970;48.774;9.280;2023-03-01T04:41:10;1.90;99.90
56103;DHT22;41970;48.774;9.280;2023-03-01T04:43:37;2.00;99.90
56103;DHT22;41970;48.774;9.280;2023-03-01T04:46:05;2.00;99.90
56103;DHT22;41970;48.774;9.280;2023-03-01T04:48:32;2.00;99.90
56103;DHT22;41970;48.774;9.280;2023-03-01T04:51:00;2.00;99.90
56103;DHT22;41970;48.774;9.280;2023-03-01T04:53:27;2.00;99.90
56103;DHT22;41970;48.774;9.280;2023-03-01T04:55:55;2.00;99.90
56103;DHT22;41970;48.774;9.280;2023-03-01T04:58:23;1.90;99.90
56103;DHT22;41970;48.774;9.280;2023-03-01T05:00:49;1.50;99.90
56103;DHT22;41970;48.774;9.280;2023-03-01T05:03:15;1.50;99.90
56103;DHT22;41970;48.774;9.280;2023-03-01T05:05:45;1.60;99.90
56103;DHT22;41970;48.774;9.280;2023-03-01T05:08:11;1.70;99.90
56103;DHT22;41970;48.774;9.280;2023-03-01T05:10:43;1.70;99.90
56103;DHT22;41970;48.774;9.280;2023-03-01T05:13:09;1.70;99.90
56103;DHT22;41970;48.774;9.280;2023-03-01T05:15:35;1.80;99.90
56103;DHT22;41970;48.774;9.280;2023-03-01T05:18:01;1.50;99.90
56103;DHT22;41970;48.774;9.280;2023-03-01T05:20:29;1.60;99.90
56103;DHT22;41970;48.774;9.280;2023-03-01T05:22:58;1.70;99.90
56103;DHT22;41970;48.774;9.280;2023-03-01T05:25:24;1.70;99.90
56103;DHT22;41970;48.774;9.280;2023-03-01T05:27:50;1.80;99.90
56103;DHT22;41970;48.774;9.280;2023-03-01T05:30:16;1.90;99.90
56103;DHT22;41970;48.774;9.280;2023-03-01T05:32:45;1.80;99.90
56103;DHT22;41970;48.774;9.280;2023-03-01T05:35:12;1.80;99.90
56103;DHT22;41970;48.774;9.280;2023-03-01T05:37:42;1.90;99.90
56103;DHT22;41970;48.774;9.280;2023-03-01T05:40:13;1.90;99.90
56103;DHT22;41970;48.774;9.280;2023-03-01T05:42:52;1.90;99.90
56103;DHT22;41970;48.774;9.280;2023-03-01T05:45:20;2.00;99.90
56103;DHT22;41970;48.774;9.280;2023-03-01T05:47:47;2.00;99.90
56103;DHT22;41970;48.774;9.280;2023-03-01T05:52:45;2.10;99.90
56103;DHT22;41970;48.774;9.280;2023-03-01T05:55:11;2.00;99.90
56103;DHT22;41970;48.774;9.280;2023-03-01T05:57:37;2.00;99.90
56103;DHT22;41970;48.774;9.280;2023-03-01T06:00:03;2.00;99.90
56103;DHT22;41970;48.774;9.280;2023-03-01T06:02:29;1.80;99.90
56103;DHT22;41970;48.774;9.280;2023-03-01T06:04:55;1.80;99.90
56103;DHT22;41970;48.774;9.280;2023-03-01T06:07:21;1.70;99.90
56103;DHT22;41970;48.774;9.280;2023-03-01T06:09:47;1.70;99.90
56103;DHT22;41970;48.774;9.280;2023-03-01T06:12:12;1.80;99.90
56103;DHT22;41970;48.774;9.280;2023-03-01T06:14:39;1.90;99.90
56103;DHT22;41970;48.774;9.280;2023-03-01T06:17:05;1.80;99.90
56103;DHT22;41970;48.774;9.280;2023-03-01T06:19:30;1.80;99.90
56103;DHT22;41970;48.774;9.280;2023-03-01T06:21:56;1.80;99.90
56103;DHT22;41970;48.774;9.280;2023-03-01T06:24:22;1.80;99.90
56103;DHT22;41970;48.774;9.280;2023-03-01T06:26:48;1.80;99.90
56103;DHT22;41970;48.774;9.280;2023-03-01T06:29:14;1.80;99.90
56103;DHT22;41970;48.774;9.280;2023-03-01T06:31:40;1.80;99.90
56103;DHT22;41970;48.774;9.280;2023-03-01T06:34:05;1.90;99.90
56103;DHT22;41970;48.774;9.280;2023-03-01T06:36:31;2.10;99.90
56103;DHT22;41970;48.774;9.280;2023-03-01T06:38:57;2.10;99.90
56103;DHT22;41970;48.774;9.280;2023-03-01T06:41:22;2.10;99.90
56103;DHT22;41970;48.774;9.280;2023-03-01T06:43:48;1.90;99.90
56103;DHT22;41970;48.774;9.280;2023-03-01T06:46:14;1.90;99.90
56103;DHT22;41970;48.774;9.280;2023-03-01T06:48:40;1.80;99.90
56103;DHT22;41970;48.774;9.280;2023-03-01T06:51:05;1.70;99.90
56103;DHT22;41970;48.774;9.280;2023-03-01T06:53:31;1.60;99.90
56103;DHT22;41970;48.774;9.280;2023-03-01T06:55:57;1.50;99.90
56103;DHT22;41970;48.774;9.280;2023-03-01T06:58:25;1.40;99.90
56103;DHT22;41970;48.774;9.280;2023-03-01T07:00:51;1.40;99.90
56103;DHT22;41970;48.774;9.280;2023-03-01T07:03:17;1.60;99.90
56103;DHT22;41970;48.774;9.280;2023-03-01T07:05:42;1.60;99.90
56103;DHT22;41970;48.774;9.280;2023-03-01T07:08:10;1.70;99.90
56103;DHT22;41970;48.774;9.280;2023-03-01T07:10:35;1.70;99.90
56103;DHT22;41970;48.774;9.280;2023-03-01T07:13:01;1.70;99.90
56103;DHT22;41970;48.774;9.280;2023-03-01T07:15:27;1.70;99.90
56103;DHT22;41970;48.774;9.280;2023-03-01T07:17:53;1.70;99.90
56103;DHT22;41970;48.774;9.280;2023-03-01T07:20:20;1.70;99.90
56103;DHT22;41970;48.774;9.280;2023-03-01T07:22:51;1.70;99.90
56103;DHT22;41970;48.774;9.280;2023-03-01T07:25:17;1.80;99.90
56103;DHT22;41970;48.774;9.280;2023-03-01T07:27:43;1.80;99.90
56103;DHT22;41970;48.774;9.280;2023-03-01T07:30:10;1.80;99.90
56103;DHT22;41970;48.774;9.280;2023-03-01T07:32:36;1.90;99.90
56103;DHT22;41970;48.774;9.280;2023-03-01T07:35:02;2.00;99.90
56103;DHT22;41970;48.774;9.280;2023-03-01T07:37:28;2.10;99.90
56103;DHT22;41970;48.774;9.280;2023-03-01T07:39:53;2.20;99.90
56103;DHT22;41970;48.774;9.280;2023-03-01T07:42:19;2.30;99.90
56103;DHT22;41970;48.774;9.280;2023-03-01T07:44:45;1.80;99.90
56103;DHT22;41970;48.774;9.280;2023-03-01T07:47:11;1.60;99.90
56103;DHT22;41970;48.774;9.280;2023-03-01T07:49:36;1.80;99.90
56103;DHT22;41970;48.774;9.280;2023-03-01T07:52:02;1.90;99.90
56103;DHT22;41970;48.774;9.280;2023-03-01T07:54:28;1.90;99.90
56103;DHT22;41970;48.774;9.280;2023-03-01T07:56:53;1.90;99.90
56103;DHT22;41970;48.774;9.280;2023-03-01T07:59:20;2.10;99.90
56103;DHT22;41970;48.774;9.280;2023-03-01T08:01:45;2.70;99.90
56103;DHT22;41970;48.774;9.280;2023-03-01T08:04:11;4.70;99.80
56103;DHT22;41970;48.774;9.280;2023-03-01T08:06:37;6.90;95.50
56103;DHT22;41970;48.774;9.280;2023-03-01T08:09:03;7.90;92.40
56103;DHT22;41970;48.774;9.280;2023-03-01T08:11:28;9.10;90.70
56103;DHT22;41970;48.774;9.280;2023-03-01T08:13:54;10.70;86.80
56103;DHT22;41970;48.774;9.280;2023-03-01T08:16:20;12.20;81.00
56103;DHT22;41970;48.774;9.280;2023-03-01T08:18:46;13.30;76.70
56103;DHT22;41970;48.774;9.280;2023-03-01T08:21:17;13.60;70.10
56103;DHT22;41970;48.774;9.280;2023-03-01T08:23:43;13.20;71.20
56103;DHT22;41970;48.774;9.280;2023-03-01T08:26:18;13.80;69.70
56103;DHT22;41970;48.774;9.280;2023-03-01T08:28:44;12.90;68.80
56103;DHT22;41970;48.774;9.280;2023-03-01T08:31:16;13.50;68.90
56103;DHT22;41970;48.774;9.280;2023-03-01T08:33:42;14.40;66.70
56103;DHT22;41970;48.774;9.280;2023-03-01T08:36:08;14.40;62.70
56103;DHT22;41970;48.774;9.280;2023-03-01T08:38:34;13.80;66.10
56103;DHT22;41970;48.774;9.280;2023-03-01T08:41:02;13.90;64.40
56103;DHT22;41970;48.774;9.280;2023-03-01T08:43:29;13.80;66.00
56103;DHT22;41970;48.774;9.280;2023-03-01T08:45:54;13.30;64.30
56103;DHT22;41970;48.774;9.280;2023-03-01T08:48:20;12.50;67.40
56103;DHT22;41970;48.774;9.280;2023-03-01T08:50:46;11.70;65.50
56103;DHT22;41970;48.774;9.280;2023-03-01T08:53:12;10.90;69.90
56103;DHT22;41970;48.774;9.280;2023-03-01T08:55:38;11.10;70.20
56103;DHT22;41970;48.774;9.280;2023-03-01T08:58:03;11.20;69.20
56103;DHT22;41970;48.774;9.280;2023-03-01T09:00:29;11.10;71.30
56103;DHT22;41970;48.774;9.280;2023-03-01T09:02:55;10.60;70.90
56103;DHT22;41970;48.774;9.280;2023-03-01T09:05:20;10.50;73.00
56103;DHT22;41970;48.774;9.280;2023-03-01T09:07:46;10.60;73.00
56103;DHT22;41970;48.774;9.280;2023-03-01T09:10:12;10.80;72.50
56103;DHT22;41970;48.774;9.280;2023-03-01T09:12:37;11.10;71.50
56103;DHT22;41970;48.774;9.280;2023-03-01T09:15:03;11.00;69.50
56103;DHT22;41970;48.774;9.280;2023-03-01T09:17:29;10.80;71.50
56103;DHT22;41970;48.774;9.280;2023-03-01T09:19:55;10.60;71.10
56103;DHT22;41970;48.774;9.280;2023-03-01T09:22:21;10.20;72.70
56103;DHT22;41970;48.774;9.280;2023-03-01T09:24:46;10.10;71.80
56103;DHT22;41970;48.774;9.280;2023-03-01T09:27:12;9.40;74.00
56103;DHT22;41970;48.774;9.280;2023-03-01T09:29:40;9.50;76.20
56103;DHT22;41970;48.774;9.280;2023-03-01T09:32:05;9.60;74.70
56103;DHT22;41970;48.774;9.280;2023-03-01T09:34:33;9.70;74.80
56103;DHT22;41970;48.774;9.280;2023-03-01T09:37:19;9.80;74.20
56103;DHT22;41970;48.774;9.280;2023-03-01T09:39:45;9.60;74.70
56103;DHT22;41970;48.774;9.280;2023-03-01T09:42:11;9.10;76.30
56103;DHT22;41970;48.774;9.280;2023-03-01T09:44:54;9.00;78.40
56103;DHT22;41970;48.774;9.280;2023-03-01T09:47:29;8.80;78.60
56103;DHT22;41970;48.774;9.280;2023-03-01T09:52:43;9.10;77.80
56103;DHT22;41970;48.774;9.280;2023-03-01T09:55:14;9.30;77.80
56103;DHT22;41970;48.774;9.280;2023-03-01T09:57:55;9.70;76.20
56103;DHT22;41970;48.774;9.280;2023-03-01T10:00:43;9.60;74.50
56103;DHT22;41970;48.774;9.280;2023-03-01T10:03:28;9.50;76.50
56103;DHT22;41970;48.774;9.280;2023-03-01T10:11:22;7.40;77.20
56103;DHT22;41970;48.774;9.280;2023-03-01T10:16:57;7.40;79.30
56103;DHT22;41970;48.774;9.280;2023-03-01T10:19:38;7.40;80.30
56103;DHT22;41970;48.774;9.280;2023-03-01T10:22:29;7.60;80.90
56103;DHT22;41970;48.774;9.280;2023-03-01T10:24:58;8.00;81.70
56103;DHT22;41970;48.774;9.280;2023-03-01T10:27:53;7.60;77.70
56103;DHT22;41970;48.774;9.280;2023-03-01T10:30:34;6.60;80.20
56103;DHT22;41970;48.774;9.280;2023-03-01T10:33:01;6.10;81.80
56103;DHT22;41970;48.774;9.280;2023-03-01T10:35:34;6.00;83.20
56103;DHT22;41970;48.774;9.280;2023-03-01T10:38:10;6.00;82.80
56103;DHT22;41970;48.774;9.280;2023-03-01T10:40:49;6.00;83.40
56103;DHT22;41970;48.774;9.280;2023-03-01T10:43:15;5.90;83.80
56103;DHT22;41970;48.774;9.280;2023-03-01T10:45:41;6.00;85.40
56103;DHT22;41970;48.774;9.280;2023-03-01T10:48:20;6.40;85.00
56103;DHT22;41970;48.774;9.280;2023-03-01T10:50:51;6.70;85.30
56103;DHT22;41970;48.774;9.280;2023-03-01T10:53:35;6.80;84.70
56103;DHT22;41970;48.774;9.280;2023-03-01T10:58:31;7.20;84.00
56103;DHT22;41970;48.774;9.280;2023-03-01T11:00:59;7.20;82.80
56103;DHT22;41970;48.774;9.280;2023-03-01T11:03:28;7.10;84.00
56103;DHT22;41970;48.774;9.280;2023-03-01T11:11:22;6.50;83.90
56103;DHT22;41970;48.774;9.280;2023-03-01T11:13:57;6.60;85.10
56103;DHT22;41970;48.774;9.280;2023-03-01T11:16:33;6.90;83.90
56103;DHT22;41970;48.774;9.280;2023-03-01T11:19:20;6.90;85.70
56103;DHT22;41970;48.774;9.280;2023-03-01T11:24:18;7.20;84.20
56103;DHT22;41970;48.774;9.280;2023-03-01T11:26:50;7.30;84.60
56103;DHT22;41970;48.774;9.280;2023-03-01T11:29:35;7.30;83.10
56103;DHT22;41970;48.774;9.280;2023-03-01T11:32:06;7.20;83.60
56103;DHT22;41970;48.774;9.280;2023-03-01T11:37:27;6.80;85.40
56103;DHT22;41970;48.774;9.280;2023-03-01T11:40:32;6.90;85.40
56103;DHT22;41970;48.774;9.280;2023-03-01T11:43:15;7.10;83.70
56103;DHT22;41970;48.774;9.280;2023-03-01T11:51:08;6.90;83.60
56103;DHT22;41970;48.774;9.280;2023-03-01T11:56:11;7.00;83.20
56103;DHT22;41970;48.774;9.280;2023-03-01T12:04:42;6.80;85.30
56103;DHT22;41970;48.774;9.280;2023-03-01T12:15:33;7.20;84.60
56103;DHT22;41970;48.774;9.280;2023-03-01T12:18:34;7.20;84.30
56103;DHT22;41970;48.774;9.280;2023-03-01T12:26:34;7.70;84.00
56103;DHT22;41970;48.774;9.280;2023-03-01T12:34:42;7.70;83.50
56103;DHT22;41970;48.774;9.280;2023-03-01T12:39:49;7.90;83.20
56103;DHT22;41970;48.774;9.280;2023-03-01T12:50:46;7.50;83.80
56103;DHT22;41970;48.774;9.280;2023-03-01T12:53:28;7.60;84.70
56103;DHT22;41970;48.774;9.280;2023-03-01T12:56:00;8.00;84.60
56103;DHT22;41970;48.774;9.280;2023-03-01T13:07:13;7.60;83.20
56103;DHT22;41970;48.774;9.280;2023-03-01T13:18:31;8.10;82.20
56103;DHT22;41970;48.774;9.280;2023-03-01T13:26:07;7.70;84.80
56103;DHT22;41970;48.774;9.280;2023-03-01T13:31:02;8.30;84.40
56103;DHT22;41970;48.774;9.280;2023-03-01T13:35:56;8.00;83.00
56103;DHT22;41970;48.774;9.280;2023-03-01T13:38:54;7.80;82.70
56103;DHT22;41970;48.774;9.280;2023-03-01T13:46:51;8.00;83.10
56103;DHT22;41970;48.774;9.280;2023-03-01T13:49:24;8.30;83.70
56103;DHT22;41970;48.774;9.280;2023-03-01T13:51:51;8.50;84.00
56103;DHT22;41970;48.774;9.280;2023-03-01T13:54:25;8.60;83.10
56103;DHT22;41970;48.774;9.280;2023-03-01T13:56:52;8.60;83.20
56103;DHT22;41970;48.774;9.280;2023-03-01T13:59:20;8.60;82.60
56103;DHT22;41970;48.774;9.280;2023-03-01T14:01:58;8.60;83.30
56103;DHT22;41970;48.774;9.280;2023-03-01T14:04:29;8.50;83.40
56103;DHT22;41970;48.774;9.280;2023-03-01T14:07:19;8.50;85.00
56103;DHT22;41970;48.774;9.280;2023-03-01T14:09:49;8.50;82.50
56103;DHT22;41970;48.774;9.280;2023-03-01T14:15:29;8.20;82.30
56103;DHT22;41970;48.774;9.280;2023-03-01T14:20:37;8.30;83.50
56103;DHT22;41970;48.774;9.280;2023-03-01T14:23:13;8.50;83.50
56103;DHT22;41970;48.774;9.280;2023-03-01T14:25:48;8.50;82.20
56103;DHT22;41970;48.774;9.280;2023-03-01T14:28:29;8.30;82.50
56103;DHT22;41970;48.774;9.280;2023-03-01T14:31:00;8.30;84.50
56103;DHT22;41970;48.774;9.280;2023-03-01T14:33:32;8.30;84.00
56103;DHT22;41970;48.774;9.280;2023-03-01T14:36:12;8.30;84.90
56103;DHT22;41970;48.774;9.280;2023-03-01T14:38:41;8.20;84.30
56103;DHT22;41970;48.774;9.280;2023-03-01T14:41:20;8.20;84.70
56103;DHT22;41970;48.774;9.280;2023-03-01T14:44:00;8.20;83.10
56103;DHT22;41970;48.774;9.280;2023-03-01T14:46:38;8.20;83.70
56103;DHT22;41970;48.774;9.280;2023-03-01T14:49:26;8.10;83.80
56103;DHT22;41970;48.774;9.280;2023-03-01T14:52:07;8.00;83.70
56103;DHT22;41970;48.774;9.280;2023-03-01T14:54:52;8.00;83.80
56103;DHT22;41970;48.774;9.280;2023-03-01T14:57:25;8.20;84.30
56103;DHT22;41970;48.774;9.280;2023-03-01T14:59:53;8.40;84.30
56103;DHT22;41970;48.774;9.280;2023-03-01T15:02:23;8.40;82.80
56103;DHT22;41970;48.774;9.280;2023-03-01T15:04:55;8.40;84.20
56103;DHT22;41970;48.774;9.280;2023-03-01T15:07:33;8.40;83.90
56103;DHT22;41970;48.774;9.280;2023-03-01T15:10:00;8.50;83.20
56103;DHT22;41970;48.774;9.280;2023-03-01T15:14:55;8.10;84.00
56103;DHT22;41970;48.774;9.280;2023-03-01T15:17:33;8.20;84.50
56103;DHT22;41970;48.774;9.280;2023-03-01T15:20:06;8.40;84.30
56103;DHT22;41970;48.774;9.280;2023-03-01T15:22:32;8.40;84.10
56103;DHT22;41970;48.774;9.280;2023-03-01T15:24:58;8.50;84.20
56103;DHT22;41970;48.774;9.280;2023-03-01T15:27:25;8.70;84.00
56103;DHT22;41970;48.774;9.280;2023-03-01T15:30:02;8.70;83.70
56103;DHT22;41970;48.774;9.280;2023-03-01T15:32:32;8.80;83.10
56103;DHT22;41970;48.774;9.280;2023-03-01T15:35:32;8.80;82.90
56103;DHT22;41970;48.774;9.280;2023-03-01T15:37:48;8.30;82.00
56103;DHT22;41970;48.774;9.280;2023-03-01T15:40:32;8.10;84.20
56103;DHT22;41970;48.774;9.280;2023-03-01T15:43:03;8.10;84.20
56103;DHT22;41970;48.774;9.280;2023-03-01T15:45:30;8.10;84.70
56103;DHT22;41970;48.774;9.280;2023-03-01T15:48:04;8.00;85.00
56103;DHT22;41970;48.774;9.280;2023-03-01T15:50:33;8.10;85.00
56103;DHT22;41970;48.774;9.280;2023-03-01T15:53:00;8.20;84.80
56103;DHT22;41970;48.774;9.280;2023-03-01T15:55:29;8.40;84.80
56103;DHT22;41970;48.774;9.280;2023-03-01T15:58:04;8.40;84.10
56103;DHT22;41970;48.774;9.280;2023-03-01T16:00:32;8.20;84.90
56103;DHT22;41970;48.774;9.280;2023-03-01T16:02:58;8.00;84.20
56103;DHT22;41970;48.774;9.280;2023-03-01T16:05:27;8.00;84.60
56103;DHT22;41970;48.774;9.280;2023-03-01T16:07:53;8.20;84.00
56103;DHT22;41970;48.774;9.280;2023-03-01T16:10:19;8.10;84.00
56103;DHT22;41970;48.774;9.280;2023-03-01T16:12:45;8.00;84.40
56103;DHT22;41970;48.774;9.280;2023-03-01T16:15:22;8.00;84.90
56103;DHT22;41970;48.774;9.280;2023-03-01T16:17:48;8.00;84.70
56103;DHT22;41970;48.774;9.280;2023-03-01T16:20:14;8.00;84.00
56103;DHT22;41970;48.774;9.280;2023-03-01T16:22:42;7.90;84.40
56103;DHT22;41970;48.774;9.280;2023-03-01T16:25:13;8.00;83.90
56103;DHT22;41970;48.774;9.280;2023-03-01T16:27:42;8.20;83.50
56103;DHT22;41970;48.774;9.280;2023-03-01T16:30:10;8.10;83.40
56103;DHT22;41970;48.774;9.280;2023-03-01T16:32:41;8.10;83.40
56103;DHT22;41970;48.774;9.280;2023-03-01T16:35:08;8.10;83.60
56103;DHT22;41970;48.774;9.280;2023-03-01T16:37:36;8.10;84.00
56103;DHT22;41970;48.774;9.280;2023-03-01T16:40:03;8.00;84.10
56103;DHT22;41970;48.774;9.280;2023-03-01T16:42:34;8.00;84.50
56103;DHT22;41970;48.774;9.280;2023-03-01T16:45:00;7.90;83.40
56103;DHT22;41970;48.774;9.280;2023-03-01T16:47:27;8.00;83.90
56103;DHT22;41970;48.774;9.280;2023-03-01T16:49:53;8.00;83.40
56103;DHT22;41970;48.774;9.280;2023-03-01T16:52:20;8.00;83.80
56103;DHT22;41970;48.774;9.280;2023-03-01T16:54:46;7.90;83.90
56103;DHT22;41970;48.774;9.280;2023-03-01T16:57:12;7.90;83.90
56103;DHT22;41970;48.774;9.280;2023-03-01T16:59:38;7.80;84.00
56103;DHT22;41970;48.774;9.280;2023-03-01T17:02:04;7.90;83.80
56103;DHT22;41970;48.774;9.280;2023-03-01T17:04:31;7.90;83.70
56103;DHT22;41970;48.774;9.280;2023-03-01T17:06:57;7.90;83.90
56103;DHT22;41970;48.774;9.280;2023-03-01T17:09:23;7.90;83.80
56103;DHT22;41970;48.774;9.280;2023-03-01T17:11:49;7.90;84.20
56103;DHT22;41970;48.774;9.280;2023-03-01T17:14:15;7.90;84.30
56103;DHT22;41970;48.774;9.280;2023-03-01T17:16:44;7.70;84.60
56103;DHT22;41970;48.774;9.280;2023-03-01T17:19:10;7.50;85.30
56103;DHT22;41970;48.774;9.280;2023-03-01T17:21:36;7.30;85.90
56103;DHT22;41970;48.774;9.280;2023-03-01T17:24:02;7.00;87.00
56103;DHT22;41970;48.774;9.280;2023-03-01T17:26:29;6.90;87.70
56103;DHT22;41970;48.774;9.280;2023-03-01T17:28:55;6.70;88.20
56103;DHT22;41970;48.774;9.280;2023-03-01T17:31:22;6.70;88.50
56103;DHT22;41970;48.774;9.280;2023-03-01T17:33:48;6.60;88.80
56103;DHT22;41970;48.774;9.280;2023-03-01T17:36:15;6.40;89.00
56103;DHT22;41970;48.774;9.280;2023-03-01T17:38:40;6.40;89.90
56103;DHT22;41970;48.774;9.280;2023-03-01T17:41:06;6.30;90.10
56103;DHT22;41970;48.774;9.280;2023-03-01T17:43:32;6.10;90.30
56103;DHT22;41970;48.774;9.280;2023-03-01T17:45:59;6.00;90.50
56103;DHT22;41970;48.774;9.280;2023-03-01T17:48:26;5.90;90.60
56103;DHT22;41970;48.774;9.280;2023-03-01T17:50:52;5.70;90.70
56103;DHT22;41970;48.774;9.280;2023-03-01T17:53:17;5.40;91.10
56103;DHT22;41970;48.774;9.280;2023-03-01T17:55:44;5.30;91.60
56103;DHT22;41970;48.774;9.280;2023-03-01T17:58:12;5.40;91.90
56103;DHT22;41970;48.774;9.280;2023-03-01T18:00:39;5.50;91.80